createdAt,value
2018-12-27T00:00:09.743Z,18.42
2018-12-27T00:00:50.550Z,18.41
2018-12-27T00:01:31.301Z,18.42
2018-12-27T00:02:12.182Z,18.39
2018-12-27T00:02:54.922Z,18.41
2018-12-27T00:03:33.980Z,18.41
2018-12-27T00:04:14.728Z,18.39
2018-12-27T00:04:55.492Z,18.39
2018-12-27T00:05:36.222Z,18.44
2018-12-27T00:06:17.042Z,18.39
2018-12-27T00:06:57.838Z,18.42
2018-12-27T00:07:38.558Z,18.37
2018-12-27T00:08:19.276Z,18.44
2018-12-27T00:09:00.050Z,18.39
2018-12-27T00:09:40.848Z,18.42
2018-12-27T00:10:21.582Z,18.44
2018-12-27T00:11:02.366Z,18.48
2018-12-27T00:11:43.154Z,18.39
2018-12-27T00:12:23.931Z,18.42
2018-12-27T00:13:04.760Z,18.42
2018-12-27T00:13:45.505Z,18.36
2018-12-27T00:14:26.191Z,18.39
2018-12-27T00:15:06.916Z,18.48
2018-12-27T00:15:47.646Z,18.45
2018-12-27T00:16:28.550Z,18.42
2018-12-27T00:17:09.372Z,18.42
2018-12-27T00:17:50.145Z,18.39
2018-12-27T00:18:30.916Z,18.41
2018-12-27T00:19:11.709Z,18.41
2018-12-27T00:19:52.590Z,18.45
2018-12-27T00:20:33.340Z,18.42
2018-12-27T00:21:14.166Z,18.47
2018-12-27T00:21:54.925Z,18.44
2018-12-27T00:22:35.680Z,18.44
2018-12-27T00:23:16.543Z,18.45
2018-12-27T00:23:57.338Z,18.45
2018-12-27T00:24:38.026Z,18.45
2018-12-27T00:25:20.409Z,18.42
2018-12-27T00:25:59.462Z,18.45
2018-12-27T00:26:40.273Z,18.41
2018-12-27T00:27:21.088Z,18.45
2018-12-27T00:28:01.787Z,18.45
2018-12-27T00:28:42.562Z,18.41
2018-12-27T00:29:23.376Z,18.44
2018-12-27T00:30:04.236Z,18.45
2018-12-27T00:30:44.965Z,18.41
2018-12-27T00:31:25.680Z,18.45
2018-12-27T00:32:06.382Z,18.45
2018-12-27T00:32:47.216Z,18.44
2018-12-27T00:33:28.028Z,18.44
2018-12-27T00:34:08.834Z,18.44
2018-12-27T00:34:49.667Z,18.42
2018-12-27T00:35:30.402Z,18.41
2018-12-27T00:36:11.215Z,18.47
2018-12-27T00:36:52.009Z,18.42
2018-12-27T00:37:32.744Z,18.42
2018-12-27T00:38:13.452Z,18.42
2018-12-27T00:38:54.193Z,18.44
2018-12-27T00:39:35.059Z,18.44
2018-12-27T00:40:15.837Z,18.44
2018-12-27T00:40:56.584Z,18.45
2018-12-27T00:41:37.344Z,18.45
2018-12-27T00:42:18.151Z,18.48
2018-12-27T00:42:59.985Z,18.47
2018-12-27T00:43:39.807Z,18.44
2018-12-27T00:44:20.546Z,18.48
2018-12-27T00:45:01.359Z,18.42
2018-12-27T00:45:42.111Z,18.42
2018-12-27T00:46:22.843Z,18.47
2018-12-27T00:47:03.533Z,18.41
2018-12-27T00:47:44.261Z,18.45
2018-12-27T00:48:25.143Z,18.45
2018-12-27T00:49:05.999Z,18.44
2018-12-27T00:49:46.800Z,18.42
2018-12-27T00:50:27.616Z,18.48
2018-12-27T00:51:08.308Z,18.42
2018-12-27T00:51:49.046Z,18.42
2018-12-27T00:52:29.808Z,18.42
2018-12-27T00:53:10.606Z,18.47
2018-12-27T00:53:51.304Z,18.42
2018-12-27T00:54:32.068Z,18.42
2018-12-27T00:55:12.870Z,18.48
2018-12-27T00:55:53.730Z,18.42
2018-12-27T00:56:34.544Z,18.42
2018-12-27T00:57:15.283Z,18.42
2018-12-27T00:57:56.020Z,18.41
2018-12-27T00:58:36.775Z,18.5
2018-12-27T00:59:17.606Z,18.44
2018-12-27T00:59:58.509Z,18.47
2018-12-27T01:00:39.262Z,18.44
2018-12-27T01:01:20.058Z,18.47
2018-12-27T01:02:00.984Z,18.42
2018-12-27T01:02:41.838Z,18.42
2018-12-27T01:03:22.633Z,18.39
2018-12-27T01:04:03.404Z,18.44
2018-12-27T01:04:44.103Z,18.41
2018-12-27T01:05:24.843Z,18.42
2018-12-27T01:06:05.663Z,18.48
2018-12-27T01:06:46.454Z,18.51
2018-12-27T01:07:27.227Z,18.52
2018-12-27T01:08:07.957Z,18.42
2018-12-27T01:08:48.735Z,18.52
2018-12-27T01:09:29.476Z,18.52
2018-12-27T01:10:10.408Z,18.45
2018-12-27T01:10:51.170Z,18.42
2018-12-27T01:11:31.859Z,18.54
2018-12-27T01:12:12.685Z,18.51
2018-12-27T01:12:53.486Z,18.44
2018-12-27T01:13:34.298Z,18.42
2018-12-27T01:14:15.004Z,18.48
2018-12-27T01:14:55.729Z,18.5
2018-12-27T01:15:36.557Z,18.52
2018-12-27T01:16:17.291Z,18.48
2018-12-27T01:16:58.044Z,18.54
2018-12-27T01:17:38.762Z,18.5
2018-12-27T01:18:19.466Z,18.52
2018-12-27T01:19:00.271Z,18.51
2018-12-27T01:19:41.117Z,18.52
2018-12-27T01:20:21.866Z,18.5
2018-12-27T01:21:02.694Z,18.5
2018-12-27T01:21:43.494Z,18.52
2018-12-27T01:22:24.288Z,18.52
2018-12-27T01:23:05.049Z,18.45
2018-12-27T01:23:45.810Z,18.52
2018-12-27T01:24:26.615Z,18.47
2018-12-27T01:25:07.445Z,18.5
2018-12-27T01:25:48.351Z,18.52
2018-12-27T01:26:29.229Z,18.42
2018-12-27T01:27:10.009Z,18.45
2018-12-27T01:27:50.772Z,18.48
2018-12-27T01:28:31.667Z,18.45
2018-12-27T01:29:12.462Z,18.44
2018-12-27T01:29:53.177Z,18.45
2018-12-27T01:30:33.942Z,18.5
2018-12-27T01:31:14.660Z,18.51
2018-12-27T01:31:55.491Z,18.48
2018-12-27T01:32:36.283Z,18.45
2018-12-27T01:33:18.773Z,18.45
2018-12-27T01:33:57.790Z,18.48
2018-12-27T01:34:38.554Z,18.51
2018-12-27T01:35:19.403Z,18.54
2018-12-27T01:36:00.122Z,18.54
2018-12-27T01:36:40.854Z,18.48
2018-12-27T01:37:21.683Z,18.48
2018-12-27T01:38:02.448Z,18.45
2018-12-27T01:38:43.137Z,18.48
2018-12-27T01:39:23.835Z,18.47
2018-12-27T01:40:04.628Z,18.39
2018-12-27T01:40:45.523Z,18.54
2018-12-27T01:41:26.354Z,18.54
2018-12-27T01:42:07.195Z,18.42
2018-12-27T01:42:47.972Z,18.54
2018-12-27T01:43:28.726Z,18.47
2018-12-27T01:44:09.415Z,18.55
2018-12-27T01:44:50.238Z,18.47
2018-12-27T01:45:31.006Z,18.54
2018-12-27T01:46:11.725Z,18.42
2018-12-27T01:46:52.508Z,18.41
2018-12-27T01:47:33.320Z,18.42
2018-12-27T01:48:14.189Z,18.48
2018-12-27T01:48:55.005Z,18.47
2018-12-27T01:49:35.748Z,18.5
2018-12-27T01:50:16.554Z,18.39
2018-12-27T01:50:57.353Z,18.5
2018-12-27T01:51:38.092Z,18.45
2018-12-27T01:52:18.805Z,18.5
2018-12-27T01:52:59.553Z,18.47
2018-12-27T01:53:40.355Z,18.45
2018-12-27T01:54:21.109Z,18.47
2018-12-27T01:55:01.949Z,18.47
2018-12-27T01:55:42.780Z,18.39
2018-12-27T01:56:23.581Z,18.5
2018-12-27T01:57:04.399Z,18.45
2018-12-27T01:57:45.111Z,18.47
2018-12-27T01:58:25.866Z,18.45
2018-12-27T01:59:06.640Z,18.47
2018-12-27T01:59:47.355Z,18.45
2018-12-27T02:00:28.195Z,18.48
2018-12-27T02:01:09.105Z,18.48
2018-12-27T02:01:49.934Z,18.52
2018-12-27T02:02:30.609Z,18.47
2018-12-27T02:03:11.403Z,18.45
2018-12-27T02:03:52.197Z,18.5
2018-12-27T02:04:32.899Z,18.54
2018-12-27T02:05:13.670Z,18.48
2018-12-27T02:05:54.403Z,18.44
2018-12-27T02:06:35.279Z,18.47
2018-12-27T02:07:16.122Z,18.42
2018-12-27T02:07:56.935Z,18.47
2018-12-27T02:08:37.694Z,18.48
2018-12-27T02:09:18.392Z,18.44
2018-12-27T02:09:59.143Z,18.48
2018-12-27T02:10:39.876Z,18.5
2018-12-27T02:11:20.734Z,18.45
2018-12-27T02:12:01.497Z,18.52
2018-12-27T02:12:42.227Z,18.48
2018-12-27T02:13:23.031Z,18.54
2018-12-27T02:14:03.829Z,18.47
2018-12-27T02:14:44.642Z,18.45
2018-12-27T02:15:25.373Z,18.45
2018-12-27T02:16:06.093Z,18.44
2018-12-27T02:16:46.867Z,18.52
2018-12-27T02:17:27.697Z,18.5
2018-12-27T02:18:08.531Z,18.54
2018-12-27T02:18:49.335Z,18.42
2018-12-27T02:19:30.083Z,18.52
2018-12-27T02:20:10.848Z,18.47
2018-12-27T02:20:51.681Z,18.51
2018-12-27T02:21:32.449Z,18.54
2018-12-27T02:22:13.176Z,18.44
2018-12-27T02:22:53.876Z,18.44
2018-12-27T02:23:34.601Z,18.47
2018-12-27T02:24:15.399Z,18.5
2018-12-27T02:24:56.145Z,18.48
2018-12-27T02:25:36.862Z,18.5
2018-12-27T02:26:17.696Z,18.52
2018-12-27T02:26:58.473Z,18.48
2018-12-27T02:27:39.273Z,18.5
2018-12-27T02:28:19.993Z,18.5
2018-12-27T02:29:00.737Z,18.5
2018-12-27T02:29:41.589Z,18.55
2018-12-27T02:30:22.438Z,18.51
2018-12-27T02:31:03.146Z,18.42
2018-12-27T02:31:43.841Z,18.5
2018-12-27T02:32:24.661Z,18.51
2018-12-27T02:33:05.436Z,18.47
2018-12-27T02:33:46.214Z,18.48
2018-12-27T02:34:26.989Z,18.48
2018-12-27T02:35:07.857Z,18.55
2018-12-27T02:35:48.530Z,18.51
2018-12-27T02:36:29.329Z,18.54
2018-12-27T02:37:10.144Z,18.51
2018-12-27T02:37:50.883Z,18.51
2018-12-27T02:38:31.610Z,18.58
2018-12-27T02:39:12.367Z,18.57
2018-12-27T02:39:53.131Z,18.5
2018-12-27T02:40:33.959Z,18.44
2018-12-27T02:41:14.731Z,18.58
2018-12-27T02:41:55.483Z,18.45
2018-12-27T02:42:36.241Z,18.51
2018-12-27T02:43:16.979Z,18.5
2018-12-27T02:43:57.734Z,18.52
2018-12-27T02:44:38.542Z,18.5
2018-12-27T02:45:19.278Z,18.5
2018-12-27T02:45:59.994Z,18.45
2018-12-27T02:46:40.806Z,18.52
2018-12-27T02:47:21.596Z,18.45
2018-12-27T02:48:02.296Z,18.37
2018-12-27T02:48:43.016Z,18.57
2018-12-27T02:49:23.746Z,18.52
2018-12-27T02:50:04.568Z,18.5
2018-12-27T02:50:45.371Z,18.5
2018-12-27T02:51:26.205Z,18.51
2018-12-27T02:52:06.982Z,18.58
2018-12-27T02:52:47.728Z,18.48
2018-12-27T02:53:28.461Z,18.5
2018-12-27T02:54:09.231Z,18.48
2018-12-27T02:54:50.001Z,18.44
2018-12-27T02:55:30.751Z,18.48
2018-12-27T02:56:11.478Z,18.5
2018-12-27T02:56:52.290Z,18.5
2018-12-27T02:57:33.192Z,18.52
2018-12-27T02:58:13.959Z,18.5
2018-12-27T02:58:54.701Z,18.51
2018-12-27T02:59:35.469Z,18.5
2018-12-27T03:00:16.237Z,18.5
2018-12-27T03:00:56.968Z,18.48
2018-12-27T03:01:37.737Z,18.5
2018-12-27T03:02:18.464Z,18.57
2018-12-27T03:02:59.295Z,18.5
2018-12-27T03:03:43.916Z,18.54
2018-12-27T03:04:20.851Z,18.5
2018-12-27T03:05:01.567Z,18.52
2018-12-27T03:05:42.319Z,18.55
2018-12-27T03:06:23.115Z,18.48
2018-12-27T03:07:03.887Z,18.47
2018-12-27T03:07:44.621Z,18.48
2018-12-27T03:08:25.351Z,18.48
2018-12-27T03:09:06.088Z,18.5
2018-12-27T03:09:46.932Z,18.62
2018-12-27T03:10:27.757Z,18.48
2018-12-27T03:11:08.559Z,18.48
2018-12-27T03:11:49.379Z,18.52
2018-12-27T03:12:30.068Z,18.51
2018-12-27T03:13:10.936Z,18.5
2018-12-27T03:13:51.676Z,18.5
2018-12-27T03:14:32.428Z,18.47
2018-12-27T03:15:13.199Z,18.47
2018-12-27T03:15:53.924Z,18.51
2018-12-27T03:16:34.709Z,18.5
2018-12-27T03:17:15.517Z,18.47
2018-12-27T03:17:56.285Z,18.47
2018-12-27T03:18:37.001Z,18.51
2018-12-27T03:19:17.790Z,18.51
2018-12-27T03:19:58.538Z,18.5
2018-12-27T03:20:39.350Z,18.52
2018-12-27T03:21:20.158Z,18.54
2018-12-27T03:22:00.893Z,18.5
2018-12-27T03:22:41.673Z,18.45
2018-12-27T03:23:22.438Z,18.54
2018-12-27T03:24:03.268Z,18.54
2018-12-27T03:24:46.623Z,18.51
2018-12-27T03:25:27.343Z,18.63
2018-12-27T03:26:08.064Z,18.5
2018-12-27T03:26:48.872Z,18.48
2018-12-27T03:27:29.603Z,18.52
2018-12-27T03:28:10.407Z,18.54
2018-12-27T03:28:51.202Z,18.51
2018-12-27T03:29:31.925Z,18.52
2018-12-27T03:30:12.738Z,18.55
2018-12-27T03:30:53.536Z,18.55
2018-12-27T03:31:34.293Z,18.58
2018-12-27T03:32:15.040Z,18.62
2018-12-27T03:32:55.849Z,18.51
2018-12-27T03:33:36.659Z,18.57
2018-12-27T03:34:17.413Z,18.48
2018-12-27T03:34:58.102Z,18.52
2018-12-27T03:35:38.906Z,18.52
2018-12-27T03:36:19.650Z,18.51
2018-12-27T03:37:00.458Z,18.54
2018-12-27T03:37:41.176Z,18.48
2018-12-27T03:38:21.950Z,18.58
2018-12-27T03:39:02.766Z,18.45
2018-12-27T03:39:43.512Z,18.57
2018-12-27T03:40:24.233Z,18.51
2018-12-27T03:41:04.912Z,18.52
2018-12-27T03:41:45.625Z,18.51
2018-12-27T03:42:26.417Z,18.51
2018-12-27T03:43:07.193Z,18.51
2018-12-27T03:43:47.984Z,18.48
2018-12-27T03:44:28.724Z,18.51
2018-12-27T03:45:09.503Z,18.51
2018-12-27T03:45:50.217Z,18.51
2018-12-27T03:46:30.982Z,18.55
2018-12-27T03:47:11.791Z,18.51
2018-12-27T03:47:52.479Z,18.5
2018-12-27T03:48:33.260Z,18.57
2018-12-27T03:49:14.049Z,18.5
2018-12-27T03:49:54.863Z,18.5
2018-12-27T03:50:35.602Z,18.51
2018-12-27T03:51:16.294Z,18.6
2018-12-27T03:51:57.092Z,18.62
2018-12-27T03:52:37.873Z,18.57
2018-12-27T03:53:18.584Z,18.51
2018-12-27T03:53:59.289Z,18.51
2018-12-27T03:54:40.023Z,18.51
2018-12-27T03:55:20.853Z,18.57
2018-12-27T03:56:01.706Z,18.52
2018-12-27T03:56:42.388Z,18.51
2018-12-27T03:57:23.170Z,18.51
2018-12-27T03:58:03.997Z,18.51
2018-12-27T03:58:44.823Z,18.52
2018-12-27T03:59:25.581Z,18.55
2018-12-27T04:00:06.282Z,18.55
2018-12-27T04:00:47.080Z,18.57
2018-12-27T04:01:27.819Z,18.6
2018-12-27T04:02:08.649Z,18.51
2018-12-27T04:02:49.475Z,18.55
2018-12-27T04:03:30.288Z,18.48
2018-12-27T04:04:10.992Z,18.52
2018-12-27T04:04:51.739Z,18.55
2018-12-27T04:05:32.522Z,18.51
2018-12-27T04:06:13.322Z,18.48
2018-12-27T04:06:54.037Z,18.52
2018-12-27T04:07:34.754Z,18.55
2018-12-27T04:08:15.529Z,18.55
2018-12-27T04:08:56.306Z,18.48
2018-12-27T04:09:37.027Z,18.58
2018-12-27T04:10:17.741Z,18.5
2018-12-27T04:10:58.521Z,18.57
2018-12-27T04:11:39.364Z,18.51
2018-12-27T04:12:20.149Z,18.58
2018-12-27T04:13:00.856Z,18.6
2018-12-27T04:13:41.643Z,18.57
2018-12-27T04:14:22.403Z,18.58
2018-12-27T04:15:03.105Z,18.47
2018-12-27T04:15:43.879Z,18.58
2018-12-27T04:16:24.599Z,18.55
2018-12-27T04:17:05.387Z,18.54
2018-12-27T04:17:46.124Z,18.54
2018-12-27T04:18:26.920Z,18.58
2018-12-27T04:19:07.630Z,18.55
2018-12-27T04:19:48.393Z,18.58
2018-12-27T04:20:29.161Z,18.57
2018-12-27T04:21:09.945Z,18.52
2018-12-27T04:21:50.780Z,18.51
2018-12-27T04:22:31.586Z,18.55
2018-12-27T04:23:12.289Z,18.51
2018-12-27T04:23:53.094Z,18.51
2018-12-27T04:24:33.902Z,18.54
2018-12-27T04:25:14.729Z,18.6
2018-12-27T04:25:56.112Z,18.55
2018-12-27T04:26:36.822Z,18.54
2018-12-27T04:27:17.621Z,18.58
2018-12-27T04:27:58.434Z,18.58
2018-12-27T04:28:39.221Z,18.57
2018-12-27T04:29:20.034Z,18.58
2018-12-27T04:30:00.864Z,18.57
2018-12-27T04:30:41.568Z,18.55
2018-12-27T04:31:22.365Z,18.55
2018-12-27T04:32:03.137Z,18.52
2018-12-27T04:32:43.856Z,18.51
2018-12-27T04:33:24.579Z,18.5
2018-12-27T04:34:09.420Z,18.54
2018-12-27T04:34:46.426Z,18.54
2018-12-27T04:35:27.413Z,18.67
2018-12-27T04:36:08.153Z,18.58
2018-12-27T04:36:48.870Z,18.63
2018-12-27T04:37:29.588Z,18.62
2018-12-27T04:38:10.376Z,18.6
2018-12-27T04:38:51.175Z,18.54
2018-12-27T04:39:31.933Z,18.62
2018-12-27T04:40:12.636Z,18.52
2018-12-27T04:40:53.459Z,18.57
2018-12-27T04:41:34.211Z,18.54
2018-12-27T04:42:15.019Z,18.52
2018-12-27T04:42:55.778Z,18.51
2018-12-27T04:43:36.481Z,18.5
2018-12-27T04:44:17.347Z,18.62
2018-12-27T04:44:58.158Z,18.54
2018-12-27T04:45:38.860Z,18.63
2018-12-27T04:46:19.565Z,18.54
2018-12-27T04:47:00.277Z,18.51
2018-12-27T04:47:41.099Z,18.6
2018-12-27T04:48:21.831Z,18.54
2018-12-27T04:49:02.563Z,18.54
2018-12-27T04:49:43.400Z,18.65
2018-12-27T04:50:24.184Z,18.52
2018-12-27T04:51:05.003Z,18.54
2018-12-27T04:51:45.748Z,18.51
2018-12-27T04:52:26.486Z,18.54
2018-12-27T04:53:07.248Z,18.55
2018-12-27T04:53:48.010Z,18.55
2018-12-27T04:54:28.824Z,18.54
2018-12-27T04:55:09.614Z,18.5
2018-12-27T04:55:50.393Z,18.54
2018-12-27T04:56:31.106Z,18.52
2018-12-27T04:57:11.873Z,18.54
2018-12-27T04:57:52.665Z,18.54
2018-12-27T04:58:33.366Z,18.55
2018-12-27T04:59:14.124Z,18.51
2018-12-27T04:59:54.893Z,18.54
2018-12-27T05:00:35.765Z,18.58
2018-12-27T05:01:16.541Z,18.55
2018-12-27T05:01:57.376Z,18.55
2018-12-27T05:02:38.143Z,18.52
2018-12-27T05:03:18.880Z,18.51
2018-12-27T05:03:59.578Z,18.51
2018-12-27T05:04:40.338Z,18.51
2018-12-27T05:05:21.139Z,18.52
2018-12-27T05:06:01.857Z,18.54
2018-12-27T05:06:42.590Z,18.51
2018-12-27T05:07:23.414Z,18.55
2018-12-27T05:08:04.177Z,18.6
2018-12-27T05:08:45.018Z,18.5
2018-12-27T05:09:25.784Z,18.58
2018-12-27T05:10:06.510Z,18.54
2018-12-27T05:10:47.259Z,18.54
2018-12-27T05:11:28.057Z,18.55
2018-12-27T05:12:08.897Z,18.63
2018-12-27T05:12:49.744Z,18.55
2018-12-27T05:13:30.488Z,18.54
2018-12-27T05:14:11.174Z,18.54
2018-12-27T05:14:51.998Z,18.55
2018-12-27T05:15:32.758Z,18.54
2018-12-27T05:16:13.509Z,18.51
2018-12-27T05:16:54.234Z,18.54
2018-12-27T05:17:35.040Z,18.58
2018-12-27T05:18:15.917Z,18.54
2018-12-27T05:18:56.643Z,18.63
2018-12-27T05:19:37.356Z,18.6
2018-12-27T05:20:18.226Z,18.51
2018-12-27T05:20:59.008Z,18.51
2018-12-27T05:21:39.855Z,18.54
2018-12-27T05:22:20.595Z,18.54
2018-12-27T05:23:01.323Z,18.51
2018-12-27T05:23:42.148Z,18.58
2018-12-27T05:24:22.911Z,18.62
2018-12-27T05:25:03.661Z,18.58
2018-12-27T05:25:44.358Z,18.54
2018-12-27T05:26:25.096Z,18.58
2018-12-27T05:27:05.936Z,18.52
2018-12-27T05:27:46.710Z,18.54
2018-12-27T05:28:27.535Z,18.58
2018-12-27T05:29:08.239Z,18.51
2018-12-27T05:29:48.943Z,18.62
2018-12-27T05:30:29.646Z,18.51
2018-12-27T05:31:10.469Z,18.54
2018-12-27T05:31:51.769Z,18.57
2018-12-27T05:32:31.907Z,18.54
2018-12-27T05:33:12.692Z,18.51
2018-12-27T05:33:53.481Z,18.51
2018-12-27T05:34:34.307Z,18.6
2018-12-27T05:35:15.034Z,18.54
2018-12-27T05:35:55.756Z,18.54
2018-12-27T05:36:36.457Z,18.54
2018-12-27T05:37:18.396Z,18.54
2018-12-27T05:37:58.049Z,18.54
2018-12-27T05:38:38.809Z,18.58
2018-12-27T05:39:19.612Z,18.52
2018-12-27T05:40:00.321Z,18.54
2018-12-27T05:40:41.094Z,18.5
2018-12-27T05:41:21.897Z,18.54
2018-12-27T05:42:02.609Z,18.54
2018-12-27T05:42:43.312Z,18.6
2018-12-27T05:43:23.994Z,18.54
2018-12-27T05:44:04.780Z,18.55
2018-12-27T05:44:45.578Z,18.51
2018-12-27T05:45:26.439Z,18.57
2018-12-27T05:46:07.181Z,18.6
2018-12-27T05:46:47.917Z,18.54
2018-12-27T05:47:28.626Z,18.54
2018-12-27T05:48:09.374Z,18.62
2018-12-27T05:48:50.193Z,18.62
2018-12-27T05:49:30.929Z,18.54
2018-12-27T05:50:11.670Z,18.6
2018-12-27T05:50:52.529Z,18.51
2018-12-27T05:51:33.277Z,18.62
2018-12-27T05:52:14.097Z,18.57
2018-12-27T05:52:54.858Z,18.54
2018-12-27T05:53:35.600Z,18.57
2018-12-27T05:54:16.409Z,18.63
2018-12-27T05:54:57.116Z,18.52
2018-12-27T05:55:37.847Z,18.51
2018-12-27T05:56:18.605Z,18.58
2018-12-27T05:56:59.360Z,18.62
2018-12-27T05:57:40.152Z,18.52
2018-12-27T05:58:20.885Z,18.62
2018-12-27T05:59:01.623Z,18.54
2018-12-27T05:59:42.394Z,18.54
2018-12-27T06:00:23.228Z,18.5
2018-12-27T06:01:04.016Z,18.57
2018-12-27T06:01:44.741Z,18.6
2018-12-27T06:02:25.488Z,18.62
2018-12-27T06:03:06.253Z,18.55
2018-12-27T06:03:47.089Z,18.54
2018-12-27T06:04:33.635Z,18.55
2018-12-27T06:05:08.731Z,18.54
2018-12-27T06:05:49.488Z,18.57
2018-12-27T06:06:30.250Z,18.54
2018-12-27T06:07:11.045Z,18.54
2018-12-27T06:07:51.795Z,18.54
2018-12-27T06:08:32.486Z,18.6
2018-12-27T06:09:13.204Z,18.55
2018-12-27T06:09:54.042Z,18.54
2018-12-27T06:10:34.857Z,18.54
2018-12-27T06:11:15.558Z,18.58
2018-12-27T06:11:56.400Z,18.52
2018-12-27T06:12:37.194Z,18.54
2018-12-27T06:13:18.009Z,18.58
2018-12-27T06:13:58.883Z,18.65
2018-12-27T06:14:39.606Z,18.55
2018-12-27T06:15:20.370Z,18.54
2018-12-27T06:16:01.164Z,18.62
2018-12-27T06:16:41.888Z,18.54
2018-12-27T06:17:22.620Z,18.55
2018-12-27T06:18:03.361Z,18.55
2018-12-27T06:18:44.104Z,18.5
2018-12-27T06:19:24.958Z,18.54
2018-12-27T06:20:05.700Z,18.58
2018-12-27T06:20:46.578Z,18.57
2018-12-27T06:21:27.315Z,18.54
2018-12-27T06:22:08.077Z,18.57
2018-12-27T06:22:48.809Z,18.62
2018-12-27T06:23:29.587Z,18.54
2018-12-27T06:24:10.359Z,18.58
2018-12-27T06:24:51.087Z,18.51
2018-12-27T06:25:31.875Z,18.51
2018-12-27T06:26:12.721Z,18.54
2018-12-27T06:26:53.540Z,18.54
2018-12-27T06:27:34.254Z,18.58
2018-12-27T06:28:14.979Z,18.55
2018-12-27T06:28:55.756Z,18.57
2018-12-27T06:29:36.535Z,18.51
2018-12-27T06:30:17.281Z,18.55
2018-12-27T06:30:58.001Z,18.6
2018-12-27T06:31:38.752Z,18.54
2018-12-27T06:32:19.534Z,18.55
2018-12-27T06:33:00.247Z,18.57
2018-12-27T06:33:41.008Z,18.58
2018-12-27T06:34:21.812Z,18.54
2018-12-27T06:35:02.663Z,18.54
2018-12-27T06:35:43.506Z,18.55
2018-12-27T06:36:24.200Z,18.55
2018-12-27T06:37:04.898Z,18.58
2018-12-27T06:37:45.625Z,18.54
2018-12-27T06:38:26.410Z,18.54
2018-12-27T06:39:07.240Z,18.58
2018-12-27T06:39:48.024Z,18.47
2018-12-27T06:40:28.814Z,18.54
2018-12-27T06:41:09.531Z,18.54
2018-12-27T06:41:50.321Z,18.48
2018-12-27T06:42:31.166Z,18.54
2018-12-27T06:43:11.912Z,18.54
2018-12-27T06:43:52.603Z,18.54
2018-12-27T06:44:33.382Z,18.54
2018-12-27T06:45:14.178Z,18.54
2018-12-27T06:45:54.963Z,18.57
2018-12-27T06:46:35.810Z,18.5
2018-12-27T06:47:16.544Z,18.45
2018-12-27T06:47:57.309Z,18.54
2018-12-27T06:48:38.036Z,18.51
2018-12-27T06:49:18.803Z,18.47
2018-12-27T06:49:59.639Z,18.58
2018-12-27T06:50:40.366Z,18.51
2018-12-27T06:51:21.199Z,18.55
2018-12-27T06:52:02.034Z,18.58
2018-12-27T06:52:42.793Z,18.54
2018-12-27T06:53:23.566Z,18.55
2018-12-27T06:54:04.336Z,18.54
2018-12-27T06:54:45.065Z,18.55
2018-12-27T06:55:25.826Z,18.69
2018-12-27T06:56:06.618Z,18.57
2018-12-27T06:56:47.447Z,18.55
2018-12-27T06:57:28.279Z,18.62
2018-12-27T06:58:09.058Z,18.65
2018-12-27T06:58:49.779Z,18.69
2018-12-27T06:59:30.573Z,18.63
2018-12-27T07:00:11.287Z,18.7
2018-12-27T07:00:51.973Z,18.66
2018-12-27T07:01:32.693Z,18.65
2018-12-27T07:02:13.454Z,18.57
2018-12-27T07:02:54.271Z,18.55
2018-12-27T07:03:34.984Z,18.66
2018-12-27T07:04:15.761Z,18.55
2018-12-27T07:04:56.609Z,18.65
2018-12-27T07:05:37.387Z,18.57
2018-12-27T07:06:18.200Z,18.55
2018-12-27T07:06:58.904Z,18.62
2018-12-27T07:07:39.653Z,18.66
2018-12-27T07:08:20.470Z,18.51
2018-12-27T07:09:01.145Z,18.52
2018-12-27T07:09:41.845Z,18.58
2018-12-27T07:10:22.580Z,18.54
2018-12-27T07:11:03.358Z,18.55
2018-12-27T07:11:44.177Z,18.52
2018-12-27T07:12:24.970Z,18.6
2018-12-27T07:13:05.761Z,18.52
2018-12-27T07:13:46.443Z,18.6
2018-12-27T07:14:27.201Z,18.58
2018-12-27T07:15:07.949Z,18.58
2018-12-27T07:15:48.812Z,18.55
2018-12-27T07:16:29.593Z,18.57
2018-12-27T07:17:10.323Z,18.52
2018-12-27T07:17:51.115Z,18.62
2018-12-27T07:18:31.887Z,18.51
2018-12-27T07:19:12.705Z,18.54
2018-12-27T07:19:53.421Z,18.57
2018-12-27T07:20:34.196Z,18.58
2018-12-27T07:21:14.903Z,18.55
2018-12-27T07:21:55.689Z,18.58
2018-12-27T07:22:36.431Z,18.6
2018-12-27T07:23:17.211Z,18.55
2018-12-27T07:23:57.932Z,18.6
2018-12-27T07:24:38.632Z,18.57
2018-12-27T07:25:19.422Z,18.57
2018-12-27T07:26:00.189Z,18.55
2018-12-27T07:26:40.923Z,18.57
2018-12-27T07:27:21.677Z,18.55
2018-12-27T07:28:02.391Z,18.55
2018-12-27T07:28:43.186Z,18.55
2018-12-27T07:29:23.973Z,18.62
2018-12-27T07:30:04.743Z,18.57
2018-12-27T07:30:45.469Z,18.54
2018-12-27T07:31:26.210Z,18.55
2018-12-27T07:32:06.930Z,18.58
2018-12-27T07:32:47.784Z,18.6
2018-12-27T07:33:28.507Z,18.52
2018-12-27T07:34:09.265Z,18.57
2018-12-27T07:34:56.227Z,18.6
2018-12-27T07:35:30.799Z,18.54
2018-12-27T07:36:11.632Z,18.6
2018-12-27T07:36:52.374Z,18.58
2018-12-27T07:37:33.082Z,18.57
2018-12-27T07:38:14.010Z,18.6
2018-12-27T07:38:54.793Z,18.66
2018-12-27T07:39:35.535Z,18.55
2018-12-27T07:40:16.278Z,18.6
2018-12-27T07:40:57.245Z,18.57
2018-12-27T07:41:37.839Z,18.58
2018-12-27T07:42:18.591Z,18.55
2018-12-27T07:42:59.348Z,18.67
2018-12-27T07:43:40.155Z,18.58
2018-12-27T07:44:20.905Z,18.55
2018-12-27T07:45:01.747Z,18.65
2018-12-27T07:45:42.482Z,18.66
2018-12-27T07:46:23.203Z,18.67
2018-12-27T07:47:05.508Z,18.6
2018-12-27T07:47:44.660Z,18.62
2018-12-27T07:48:25.528Z,18.65
2018-12-27T07:49:06.349Z,18.55
2018-12-27T07:49:47.112Z,18.55
2018-12-27T07:50:27.844Z,18.62
2018-12-27T07:51:08.626Z,18.66
2018-12-27T07:51:49.423Z,18.66
2018-12-27T07:52:30.199Z,18.62
2018-12-27T07:53:10.916Z,18.63
2018-12-27T07:53:51.660Z,18.66
2018-12-27T07:54:32.470Z,18.72
2018-12-27T07:55:13.244Z,18.65
2018-12-27T07:55:54.058Z,18.66
2018-12-27T07:56:34.775Z,18.66
2018-12-27T07:57:15.505Z,18.63
2018-12-27T07:57:56.235Z,18.66
2018-12-27T07:58:36.952Z,18.63
2018-12-27T07:59:17.774Z,18.66
2018-12-27T07:59:58.542Z,18.63
2018-12-27T08:00:39.335Z,18.7
2018-12-27T08:01:20.129Z,18.65
2018-12-27T08:02:00.935Z,18.7
2018-12-27T08:02:41.719Z,18.62
2018-12-27T08:03:22.417Z,18.7
2018-12-27T08:04:03.163Z,18.63
2018-12-27T08:04:43.930Z,18.63
2018-12-27T08:05:24.761Z,18.69
2018-12-27T08:06:05.496Z,18.69
2018-12-27T08:06:46.266Z,18.67
2018-12-27T08:07:26.993Z,18.72
2018-12-27T08:08:07.671Z,18.62
2018-12-27T08:08:48.700Z,18.7
2018-12-27T08:09:29.353Z,18.58
2018-12-27T08:10:10.074Z,18.73
2018-12-27T08:10:50.785Z,18.62
2018-12-27T08:11:31.529Z,18.62
2018-12-27T08:12:12.359Z,18.73
2018-12-27T08:12:53.101Z,18.65
2018-12-27T08:13:33.844Z,18.65
2018-12-27T08:14:14.687Z,18.72
2018-12-27T08:14:55.421Z,18.63
2018-12-27T08:15:36.263Z,18.67
2018-12-27T08:16:17.011Z,18.66
2018-12-27T08:16:57.751Z,18.75
2018-12-27T08:17:38.561Z,18.7
2018-12-27T08:18:19.301Z,18.67
2018-12-27T08:19:00.013Z,18.69
2018-12-27T08:19:40.715Z,18.7
2018-12-27T08:20:21.441Z,18.66
2018-12-27T08:21:02.245Z,18.67
2018-12-27T08:21:43.066Z,18.65
2018-12-27T08:22:23.812Z,18.69
2018-12-27T08:23:04.561Z,18.69
2018-12-27T08:23:45.340Z,18.67
2018-12-27T08:24:26.119Z,18.63
2018-12-27T08:25:06.938Z,18.69
2018-12-27T08:25:47.738Z,18.58
2018-12-27T08:26:28.449Z,18.69
2018-12-27T08:27:09.308Z,18.62
2018-12-27T08:27:50.090Z,18.69
2018-12-27T08:28:30.918Z,18.69
2018-12-27T08:29:11.639Z,18.69
2018-12-27T08:29:52.392Z,18.66
2018-12-27T08:30:33.181Z,18.69
2018-12-27T08:31:13.913Z,18.67
2018-12-27T08:31:54.630Z,18.69
2018-12-27T08:32:35.310Z,18.65
2018-12-27T08:33:16.090Z,18.65
2018-12-27T08:33:56.980Z,18.65
2018-12-27T08:34:37.748Z,18.73
2018-12-27T08:35:18.471Z,18.7
2018-12-27T08:35:59.302Z,18.69
2018-12-27T08:36:40.093Z,18.7
2018-12-27T08:37:20.846Z,18.7
2018-12-27T08:38:01.588Z,18.65
2018-12-27T08:38:42.303Z,18.7
2018-12-27T08:39:22.989Z,18.69
2018-12-27T08:40:03.807Z,18.7
2018-12-27T08:40:44.567Z,18.67
2018-12-27T08:41:25.348Z,18.69
2018-12-27T08:42:06.096Z,18.69
2018-12-27T08:42:46.838Z,18.7
2018-12-27T08:43:27.635Z,18.69
2018-12-27T08:44:08.380Z,18.7
2018-12-27T08:44:49.108Z,18.7
2018-12-27T08:45:29.837Z,18.7
2018-12-27T08:46:10.602Z,18.67
2018-12-27T08:46:51.405Z,18.67